sensor_id;sensor_type;location;lat;lon;timestamp;pressure;altitude;pressure_sealevel;temperature;humidity
32875;BME280;40468;42.128;24.750;2023-02-13T00:00:48;101614.84;;;4.49;51.24
32875;BME280;40468;42.128;24.750;2023-02-13T00:02:20;101622.59;;;4.51;51.22
32875;BME280;40468;42.128;24.750;2023-02-13T00:03:51;101617.44;;;4.51;51.15
32875;BME280;40468;42.128;24.750;2023-02-13T00:05:23;101617.41;;;4.49;51.11
32875;BME280;40468;42.128;24.750;2023-02-13T00:06:55;101625.16;;;4.48;51.21
32875;BME280;40468;42.128;24.750;2023-02-13T00:08:27;101620.00;;;4.48;51.25
32875;BME280;40468;42.128;24.750;2023-02-13T00:09:58;101616.50;;;4.43;51.26
32875;BME280;40468;42.128;24.750;2023-02-13T00:11:31;101617.41;;;4.45;51.42
32875;BME280;40468;42.128;24.750;2023-02-13T00:13:03;101625.06;;;4.40;51.25
32875;BME280;40468;42.128;24.750;2023-02-13T00:14:34;101622.50;;;4.39;51.38
32875;BME280;40468;42.128;24.750;2023-02-13T00:16:06;101610.38;;;4.31;51.35
32875;BME280;40468;42.128;24.750;2023-02-13T00:17:38;101625.03;;;4.34;51.39
32875;BME280;40468;42.128;24.750;2023-02-13T00:19:10;101630.19;;;4.34;51.43
32875;BME280;40468;42.128;24.750;2023-02-13T00:20:42;101624.16;;;4.33;51.53
32875;BME280;40468;42.128;24.750;2023-02-13T00:22:13;101629.34;;;4.35;51.44
32875;BME280;40468;42.128;24.750;2023-02-13T00:23:48;101637.97;;;4.39;51.48
32875;BME280;40468;42.128;24.750;2023-02-13T00:25:21;101637.97;;;4.39;51.50
32875;BME280;40468;42.128;24.750;2023-02-13T00:26:54;101634.53;;;4.40;51.61
32875;BME280;40468;42.128;24.750;2023-02-13T00:28:26;101637.13;;;4.40;51.67
32875;BME280;40468;42.128;24.750;2023-02-13T00:29:58;101644.00;;;4.41;51.57
32875;BME280;40468;42.128;24.750;2023-02-13T00:31:29;101636.25;;;4.41;51.61
32875;BME280;40468;42.128;24.750;2023-02-13T00:33:02;101641.41;;;4.39;51.60
32875;BME280;40468;42.128;24.750;2023-02-13T00:34:33;101638.84;;;4.41;51.68
32875;BME280;40468;42.128;24.750;2023-02-13T00:36:08;101638.88;;;4.42;51.68
32875;BME280;40468;42.128;24.750;2023-02-13T00:37:40;101639.72;;;4.43;51.54
32875;BME280;40468;42.128;24.750;2023-02-13T00:39:12;101638.03;;;4.45;51.55
32875;BME280;40468;42.128;24.750;2023-02-13T00:40:44;101643.19;;;4.45;51.64
32875;BME280;40468;42.128;24.750;2023-02-13T00:42:17;101635.47;;;4.45;51.55
32875;BME280;40468;42.128;24.750;2023-02-13T00:43:49;101642.34;;;4.46;51.62
32875;BME280;40468;42.128;24.750;2023-02-13T00:45:21;101640.63;;;4.45;51.68
32875;BME280;40468;42.128;24.750;2023-02-13T00:46:53;101638.91;;;4.44;51.73
32875;BME280;40468;42.128;24.750;2023-02-13T00:48:23;101639.75;;;4.46;51.69
32875;BME280;40468;42.128;24.750;2023-02-13T00:49:56;101642.34;;;4.46;51.76
32875;BME280;40468;42.128;24.750;2023-02-13T00:51:28;101644.09;;;4.47;51.62
32875;BME280;40468;42.128;24.750;2023-02-13T00:53:00;101635.47;;;4.45;51.66
32875;BME280;40468;42.128;24.750;2023-02-13T00:54:32;101627.66;;;4.39;51.74
32875;BME280;40468;42.128;24.750;2023-02-13T00:56:05;101639.72;;;4.43;51.89
32875;BME280;40468;42.128;24.750;2023-02-13T00:57:39;101638.91;;;4.44;51.83
32875;BME280;40468;42.128;24.750;2023-02-13T00:59:11;101631.13;;;4.42;51.85
32875;BME280;40468;42.128;24.750;2023-02-13T01:00:42;101636.28;;;4.42;51.80
32875;BME280;40468;42.128;24.750;2023-02-13T01:02:16;101640.63;;;4.45;51.73
32875;BME280;40468;42.128;24.750;2023-02-13T01:03:48;101641.47;;;4.45;51.81
32875;BME280;40468;42.128;24.750;2023-02-13T01:05:20;101642.34;;;4.46;51.90
32875;BME280;40468;42.128;24.750;2023-02-13T01:06:52;101642.34;;;4.46;51.84
32875;BME280;40468;42.128;24.750;2023-02-13T01:08:24;101635.47;;;4.45;51.94
32875;BME280;40468;42.128;24.750;2023-02-13T01:09:57;101644.06;;;4.45;51.91
32875;BME280;40468;42.128;24.750;2023-02-13T01:11:29;101640.63;;;4.46;51.88
32875;BME280;40468;42.128;24.750;2023-02-13T01:13:02;101640.63;;;4.48;52.01
32875;BME280;40468;42.128;24.750;2023-02-13T01:14:34;101640.63;;;4.48;51.63
32875;BME280;40468;42.128;24.750;2023-02-13T01:16:06;101637.19;;;4.47;51.76
32875;BME280;40468;42.128;24.750;2023-02-13T01:17:38;101627.72;;;4.46;51.77
32875;BME280;40468;42.128;24.750;2023-02-13T01:19:10;101640.66;;;4.51;51.67
32875;BME280;40468;42.128;24.750;2023-02-13T01:20:42;101633.81;;;4.53;51.82
32875;BME280;40468;42.128;24.750;2023-02-13T01:22:15;101634.66;;;4.50;51.83
32875;BME280;40468;42.128;24.750;2023-02-13T01:23:47;101635.50;;;4.51;51.76
32875;BME280;40468;42.128;24.750;2023-02-13T01:25:18;101638.97;;;4.53;51.81
32875;BME280;40468;42.128;24.750;2023-02-13T01:26:50;101633.81;;;4.53;51.71
32875;BME280;40468;42.128;24.750;2023-02-13T01:28:24;101643.28;;;4.54;51.69
32875;BME280;40468;42.128;24.750;2023-02-13T01:29:54;101645.84;;;4.54;51.85
32875;BME280;40468;42.128;24.750;2023-02-13T01:31:27;101643.25;;;4.52;51.82
32875;BME280;40468;42.128;24.750;2023-02-13T01:32:58;101642.38;;;4.52;51.92
32875;BME280;40468;42.128;24.750;2023-02-13T01:34:30;101640.66;;;4.52;51.91
32875;BME280;40468;42.128;24.750;2023-02-13T01:36:05;101648.44;;;4.54;51.74
32875;BME280;40468;42.128;24.750;2023-02-13T01:37:37;101649.31;;;4.56;51.68
32875;BME280;40468;42.128;24.750;2023-02-13T01:39:11;101642.44;;;4.58;51.63
32875;BME280;40468;42.128;24.750;2023-02-13T01:40:45;101652.75;;;4.56;51.62
32875;BME280;40468;42.128;24.750;2023-02-13T01:42:23;101653.59;;;4.54;51.59
32875;BME280;40468;42.128;24.750;2023-02-13T01:43:58;101651.00;;;4.54;51.59
32875;BME280;40468;42.128;24.750;2023-02-13T01:45:30;101658.75;;;4.54;51.65
32875;BME280;40468;42.128;24.750;2023-02-13T01:47:02;101649.25;;;4.48;51.59
32875;BME280;40468;42.128;24.750;2023-02-13T01:48:34;101650.16;;;4.53;51.56
32875;BME280;40468;42.128;24.750;2023-02-13T01:50:09;101654.47;;;4.53;51.63
32875;BME280;40468;42.128;24.750;2023-02-13T01:51:42;101655.25;;;4.49;51.79
32875;BME280;40468;42.128;24.750;2023-02-13T01:53:17;101655.22;;;4.46;51.87
32875;BME280;40468;42.128;24.750;2023-02-13T01:54:50;101650.91;;;4.43;51.94
32875;BME280;40468;42.128;24.750;2023-02-13T01:56:25;101654.38;;;4.44;51.98
32875;BME280;40468;42.128;24.750;2023-02-13T01:58:01;101654.38;;;4.44;52.09
32875;BME280;40468;42.128;24.750;2023-02-13T01:59:42;101658.63;;;4.43;51.99
32875;BME280;40468;42.128;24.750;2023-02-13T02:01:16;101650.91;;;4.42;51.93
32875;BME280;40468;42.128;24.750;2023-02-13T02:02:50;101656.06;;;4.42;52.02
32875;BME280;40468;42.128;24.750;2023-02-13T02:04:24;101652.56;;;4.37;52.16
32875;BME280;40468;42.128;24.750;2023-02-13T02:05:59;101662.84;;;4.33;52.17
32875;BME280;40468;42.128;24.750;2023-02-13T02:07:32;101664.56;;;4.33;52.39
32875;BME280;40468;42.128;24.750;2023-02-13T02:09:10;101666.28;;;4.32;52.26
32875;BME280;40468;42.128;24.750;2023-02-13T02:10:42;101667.13;;;4.31;52.43
32875;BME280;40468;42.128;24.750;2023-02-13T02:12:21;101662.81;;;4.30;52.20
32875;BME280;40468;42.128;24.750;2023-02-13T02:13:55;101667.09;;;4.28;52.22
32875;BME280;40468;42.128;24.750;2023-02-13T02:15:30;101666.22;;;4.26;52.40
32875;BME280;40468;42.128;24.750;2023-02-13T02:17:00;101666.19;;;4.25;52.29
32875;BME280;40468;42.128;24.750;2023-02-13T02:18:32;101663.59;;;4.22;52.45
32875;BME280;40468;42.128;24.750;2023-02-13T02:20:16;101670.44;;;4.20;52.47
32875;BME280;40468;42.128;24.750;2023-02-13T02:22:15;101661.78;;;4.12;52.51
32875;BME280;40468;42.128;24.750;2023-02-13T02:30:45;101682.97;;;3.89;53.00
32875;BME280;40468;42.128;24.750;2023-02-13T02:32:52;101685.50;;;3.86;53.21
32875;BME280;40468;42.128;24.750;2023-02-13T02:34:31;101689.78;;;3.82;53.23
32875;BME280;40468;42.128;24.750;2023-02-13T02:36:16;101692.28;;;3.78;53.35
32875;BME280;40468;42.128;24.750;2023-02-13T02:38:04;101690.53;;;3.74;53.43
32875;BME280;40468;42.128;24.750;2023-02-13T02:39:47;101698.19;;;3.69;53.63
32875;BME280;40468;42.128;24.750;2023-02-13T02:41:31;101698.13;;;3.64;53.61
32875;BME280;40468;42.128;24.750;2023-02-13T02:43:22;101705.78;;;3.60;53.90
32875;BME280;40468;42.128;24.750;2023-02-13T02:45:04;101697.06;;;3.52;53.90
32875;BME280;40468;42.128;24.750;2023-02-13T02:46:46;101700.53;;;3.54;53.96
32875;BME280;40468;42.128;24.750;2023-02-13T02:48:47;101702.09;;;3.42;53.96
32875;BME280;40468;42.128;24.750;2023-02-13T02:50:41;101709.00;;;3.45;54.10
32875;BME280;40468;42.128;24.750;2023-02-13T02:52:17;101710.69;;;3.41;54.21
32875;BME280;40468;42.128;24.750;2023-02-13T02:54:00;101712.34;;;3.39;54.35
32875;BME280;40468;42.128;24.750;2023-02-13T02:56:04;101703.69;;;3.33;54.54
32875;BME280;40468;42.128;24.750;2023-02-13T02:57:41;101713.88;;;3.27;54.62
32875;BME280;40468;42.128;24.750;2023-02-13T02:59:35;101723.28;;;3.23;54.61
32875;BME280;40468;42.128;24.750;2023-02-13T03:01:28;101710.25;;;3.14;54.80
32875;BME280;40468;42.128;24.750;2023-02-13T03:03:20;101722.25;;;3.13;54.92
32875;BME280;40468;42.128;24.750;2023-02-13T03:05:18;101722.19;;;3.09;54.93
32875;BME280;40468;42.128;24.750;2023-02-13T03:07:11;101723.84;;;3.05;55.02
32875;BME280;40468;42.128;24.750;2023-02-13T03:08:51;101726.34;;;3.01;55.22
32875;BME280;40468;42.128;24.750;2023-02-13T03:10:41;101725.38;;;2.95;55.24
32875;BME280;40468;42.128;24.750;2023-02-13T03:12:35;101725.28;;;2.89;55.70
32875;BME280;40468;42.128;24.750;2023-02-13T03:14:27;101725.19;;;2.83;55.68
32875;BME280;40468;42.128;24.750;2023-02-13T03:15:59;101720.81;;;2.79;55.84
32875;BME280;40468;42.128;24.750;2023-02-13T03:17:48;101722.44;;;2.74;56.10
32875;BME280;40468;42.128;24.750;2023-02-13T03:19:46;101718.09;;;2.70;56.11
32875;BME280;40468;42.128;24.750;2023-02-13T03:21:46;101715.47;;;2.67;56.12
32875;BME280;40468;42.128;24.750;2023-02-13T03:23:50;101711.91;;;2.60;56.16
32875;BME280;40468;42.128;24.750;2023-02-13T03:25:29;101716.16;;;2.58;56.35
32875;BME280;40468;42.128;24.750;2023-02-13T03:27:07;101719.53;;;2.56;56.68
32875;BME280;40468;42.128;24.750;2023-02-13T03:28:43;101714.31;;;2.51;56.61
32875;BME280;40468;42.128;24.750;2023-02-13T03:30:43;101732.28;;;2.49;56.68
32875;BME280;40468;42.128;24.750;2023-02-13T03:32:26;101722.63;;;2.38;56.82
32875;BME280;40468;42.128;24.750;2023-02-13T03:34:01;101729.56;;;2.42;56.83
32875;BME280;40468;42.128;24.750;2023-02-13T03:35:41;101732.94;;;2.38;57.01
32875;BME280;40468;42.128;24.750;2023-02-13T03:37:38;101729.31;;;2.28;57.23
32875;BME280;40468;42.128;24.750;2023-02-13T03:39:34;101732.63;;;2.22;57.28
32875;BME280;40468;42.128;24.750;2023-02-13T03:41:12;101735.97;;;2.18;57.27
32875;BME280;40468;42.128;24.750;2023-02-13T03:42:51;101737.66;;;2.16;57.41
32875;BME280;40468;42.128;24.750;2023-02-13T03:44:27;101741.84;;;2.13;57.70
32875;BME280;40468;42.128;24.750;2023-02-13T03:46:02;101741.72;;;2.07;57.88
32875;BME280;40468;42.128;24.750;2023-02-13T03:47:34;101737.28;;;1.99;58.45
32875;BME280;40468;42.128;24.750;2023-02-13T03:49:10;101736.31;;;1.94;58.52
32875;BME280;40468;42.128;24.750;2023-02-13T03:51:03;101726.66;;;1.82;58.68
32875;BME280;40468;42.128;24.750;2023-02-13T03:52:40;101739.47;;;1.81;58.48
32875;BME280;40468;42.128;24.750;2023-02-13T03:54:17;101735.94;;;1.77;58.83
32875;BME280;40468;42.128;24.750;2023-02-13T03:55:50;101732.53;;;1.77;58.68
32875;BME280;40468;42.128;24.750;2023-02-13T03:57:42;101736.84;;;1.78;58.88
32875;BME280;40468;42.128;24.750;2023-02-13T03:59:34;101740.28;;;1.78;58.69
32875;BME280;40468;42.128;24.750;2023-02-13T04:01:08;101730.81;;;1.77;59.04
32875;BME280;40468;42.128;24.750;2023-02-13T04:02:49;101734.28;;;1.78;59.08
32875;BME280;40468;42.128;24.750;2023-02-13T04:04:27;101729.13;;;1.78;59.08
32875;BME280;40468;42.128;24.750;2023-02-13T04:06:03;101736.03;;;1.80;59.10
32875;BME280;40468;42.128;24.750;2023-02-13T04:07:39;101729.19;;;1.81;59.00
32875;BME280;40468;42.128;24.750;2023-02-13T04:09:10;101734.28;;;1.78;59.25
32875;BME280;40468;42.128;24.750;2023-02-13T04:10:47;101741.13;;;1.79;59.21
32875;BME280;40468;42.128;24.750;2023-02-13T04:12:25;101742.03;;;1.81;59.07
32875;BME280;40468;42.128;24.750;2023-02-13T04:14:04;101733.47;;;1.80;59.16
32875;BME280;40468;42.128;24.750;2023-02-13T04:15:40;101737.72;;;1.80;59.12
32875;BME280;40468;42.128;24.750;2023-02-13T04:17:17;101738.50;;;1.76;59.42
32875;BME280;40468;42.128;24.750;2023-02-13T04:18:52;101737.59;;;1.74;59.48
32875;BME280;40468;42.128;24.750;2023-02-13T04:20:26;101731.59;;;1.73;59.27
32875;BME280;40468;42.128;24.750;2023-02-13T04:21:59;101737.63;;;1.75;59.25
32875;BME280;40468;42.128;24.750;2023-02-13T04:23:33;101732.53;;;1.77;59.21
32875;BME280;40468;42.128;24.750;2023-02-13T04:25:06;101735.06;;;1.75;59.17
32875;BME280;40468;42.128;24.750;2023-02-13T04:26:40;101735.94;;;1.76;59.21
32875;BME280;40468;42.128;24.750;2023-02-13T04:28:12;101741.06;;;1.76;59.31
32875;BME280;40468;42.128;24.750;2023-02-13T04:29:44;101737.63;;;1.75;59.28
32875;BME280;40468;42.128;24.750;2023-02-13T04:31:16;101735.81;;;1.71;59.38
32875;BME280;40468;42.128;24.750;2023-02-13T04:32:47;101738.31;;;1.67;59.70
32875;BME280;40468;42.128;24.750;2023-02-13T04:34:20;101728.88;;;1.66;59.75
32875;BME280;40468;42.128;24.750;2023-02-13T04:35:52;101729.69;;;1.65;59.62
32875;BME280;40468;42.128;24.750;2023-02-13T04:37:23;101734.81;;;1.65;59.77
32875;BME280;40468;42.128;24.750;2023-02-13T04:38:57;101733.97;;;1.64;59.86
32875;BME280;40468;42.128;24.750;2023-02-13T04:40:29;101733.91;;;1.63;59.76
32875;BME280;40468;42.128;24.750;2023-02-13T04:42:01;101738.16;;;1.61;59.79
32875;BME280;40468;42.128;24.750;2023-02-13T04:43:31;101730.47;;;1.62;59.79
32875;BME280;40468;42.128;24.750;2023-02-13T04:45:04;101737.38;;;1.63;59.84
32875;BME280;40468;42.128;24.750;2023-02-13T04:46:35;101741.63;;;1.63;59.81
32875;BME280;40468;42.128;24.750;2023-02-13T04:48:07;101747.59;;;1.62;59.71
32875;BME280;40468;42.128;24.750;2023-02-13T04:49:39;101746.72;;;1.61;59.87
32875;BME280;40468;42.128;24.750;2023-02-13T04:51:10;101745.81;;;1.57;59.76
32875;BME280;40468;42.128;24.750;2023-02-13T04:52:42;101751.75;;;1.56;60.03
32875;BME280;40468;42.128;24.750;2023-02-13T04:54:15;101747.44;;;1.54;60.14
32875;BME280;40468;42.128;24.750;2023-02-13T04:55:47;101745.69;;;1.53;59.94
32875;BME280;40468;42.128;24.750;2023-02-13T04:57:19;101741.41;;;1.52;60.04
32875;BME280;40468;42.128;24.750;2023-02-13T04:58:51;101751.66;;;1.52;60.16
32875;BME280;40468;42.128;24.750;2023-02-13T05:00:24;101752.47;;;1.51;60.09
32875;BME280;40468;42.128;24.750;2023-02-13T05:01:56;101744.75;;;1.49;60.10
32875;BME280;40468;42.128;24.750;2023-02-13T05:03:28;101752.38;;;1.46;60.10
32875;BME280;40468;42.128;24.750;2023-02-13T05:05:00;101748.03;;;1.44;60.36
32875;BME280;40468;42.128;24.750;2023-02-13T05:06:32;101744.47;;;1.37;60.15
32875;BME280;40468;42.128;24.750;2023-02-13T05:08:05;101748.81;;;1.40;60.40
32875;BME280;40468;42.128;24.750;2023-02-13T05:09:38;101761.53;;;1.35;60.34
32875;BME280;40468;42.128;24.750;2023-02-13T05:11:10;101757.97;;;1.30;60.59
32875;BME280;40468;42.128;24.750;2023-02-13T05:12:42;101760.53;;;1.30;60.64
32875;BME280;40468;42.128;24.750;2023-02-13T05:14:14;101762.28;;;1.31;60.67
32875;BME280;40468;42.128;24.750;2023-02-13T05:15:46;101758.81;;;1.29;60.55
32875;BME280;40468;42.128;24.750;2023-02-13T05:17:18;101758.78;;;1.27;60.72
32875;BME280;40468;42.128;24.750;2023-02-13T05:18:50;101763.09;;;1.30;60.71
32875;BME280;40468;42.128;24.750;2023-02-13T05:20:24;101762.16;;;1.26;60.85
32875;BME280;40468;42.128;24.750;2023-02-13T05:21:56;101771.50;;;1.23;60.92
32875;BME280;40468;42.128;24.750;2023-02-13T05:23:45;101771.34;;;1.17;61.16
32875;BME280;40468;42.128;24.750;2023-02-13T05:25:17;101771.28;;;1.13;61.18
32875;BME280;40468;42.128;24.750;2023-02-13T05:26:49;101777.19;;;1.11;60.95
32875;BME280;40468;42.128;24.750;2023-02-13T05:28:21;101776.28;;;1.09;61.08
32875;BME280;40468;42.128;24.750;2023-02-13T05:30:11;101773.69;;;1.07;61.11
32875;BME280;40468;42.128;24.750;2023-02-13T05:31:43;101782.31;;;1.11;61.22
32875;BME280;40468;42.128;24.750;2023-02-13T05:33:14;101776.34;;;1.10;61.26
32875;BME280;40468;42.128;24.750;2023-02-13T05:34:46;101775.47;;;1.10;61.31
32875;BME280;40468;42.128;24.750;2023-02-13T05:36:18;101791.81;;;1.15;61.24
32875;BME280;40468;42.128;24.750;2023-02-13T05:37:49;101787.41;;;1.09;61.05
32875;BME280;40468;42.128;24.750;2023-02-13T05:39:21;101794.38;;;1.13;61.04
32875;BME280;40468;42.128;24.750;2023-02-13T05:40:57;101793.53;;;1.14;61.16
32875;BME280;40468;42.128;24.750;2023-02-13T05:42:29;101802.97;;;1.16;61.00
32875;BME280;40468;42.128;24.750;2023-02-13T05:44:01;101797.84;;;1.16;61.14
32875;BME280;40468;42.128;24.750;2023-02-13T05:45:31;101803.00;;;1.17;61.18
32875;BME280;40468;42.128;24.750;2023-02-13T05:47:03;101806.34;;;1.14;61.43
32875;BME280;40468;42.128;24.750;2023-02-13T05:48:35;101807.22;;;1.15;61.28
32875;BME280;40468;42.128;24.750;2023-02-13T05:50:07;101808.06;;;1.14;61.36
32875;BME280;40468;42.128;24.750;2023-02-13T05:51:39;101809.78;;;1.15;61.40
32875;BME280;40468;42.128;24.750;2023-02-13T05:53:11;101805.56;;;1.17;61.18
32875;BME280;40468;42.128;24.750;2023-02-13T05:54:43;101803.06;;;1.19;61.22
32875;BME280;40468;42.128;24.750;2023-02-13T05:56:16;101811.72;;;1.24;61.29
32875;BME280;40468;42.128;24.750;2023-02-13T05:57:48;101810.06;;;1.26;61.13
32875;BME280;40468;42.128;24.750;2023-02-13T05:59:20;101811.00;;;1.28;61.27
32875;BME280;40468;42.128;24.750;2023-02-13T06:00:55;101809.38;;;1.33;61.24
32875;BME280;40468;42.128;24.750;2023-02-13T06:02:27;101807.72;;;1.33;61.29
32875;BME280;40468;42.128;24.750;2023-02-13T06:03:59;101815.50;;;1.38;61.04
32875;BME280;40468;42.128;24.750;2023-02-13T06:05:31;101812.22;;;1.42;61.03
32875;BME280;40468;42.128;24.750;2023-02-13T06:07:03;101819.16;;;1.48;61.16
32875;BME280;40468;42.128;24.750;2023-02-13T06:08:34;101814.03;;;1.48;61.00
32875;BME280;40468;42.128;24.750;2023-02-13T06:10:07;101822.66;;;1.50;61.17
32875;BME280;40468;42.128;24.750;2023-02-13T06:11:40;101814.94;;;1.50;61.09
32875;BME280;40468;42.128;24.750;2023-02-13T06:13:12;101800.25;;;1.44;61.43
32875;BME280;40468;42.128;24.750;2023-02-13T06:14:44;101817.50;;;1.50;61.35
32875;BME280;40468;42.128;24.750;2023-02-13T06:16:16;101820.94;;;1.50;61.32
32875;BME280;40468;42.128;24.750;2023-02-13T06:17:48;101809.78;;;1.48;61.54
32875;BME280;40468;42.128;24.750;2023-02-13T06:19:19;101814.06;;;1.49;61.56
32875;BME280;40468;42.128;24.750;2023-02-13T06:20:51;101815.78;;;1.49;61.53
32875;BME280;40468;42.128;24.750;2023-02-13T06:22:23;101815.84;;;1.52;61.48
32875;BME280;40468;42.128;24.750;2023-02-13T06:23:55;101820.28;;;1.57;61.64
32875;BME280;40468;42.128;24.750;2023-02-13T06:25:27;101824.72;;;1.65;61.31
32875;BME280;40468;42.128;24.750;2023-02-13T06:27:00;101827.41;;;1.71;61.46
32875;BME280;40468;42.128;24.750;2023-02-13T06:28:32;101826.63;;;1.73;61.08
32875;BME280;40468;42.128;24.750;2023-02-13T06:30:05;101828.53;;;1.82;61.15
32875;BME280;40468;42.128;24.750;2023-02-13T06:31:37;101827.88;;;1.91;60.95
32875;BME280;40468;42.128;24.750;2023-02-13T06:33:09;101822.94;;;2.00;61.02
32875;BME280;40468;42.128;24.750;2023-02-13T06:34:40;101821.38;;;2.07;60.83
32875;BME280;40468;42.128;24.750;2023-02-13T06:36:12;101819.00;;;2.14;60.88
32875;BME280;40468;42.128;24.750;2023-02-13T06:37:44;101817.47;;;2.24;60.54
32875;BME280;40468;42.128;24.750;2023-02-13T06:39:16;101821.03;;;2.31;60.53
32875;BME280;40468;42.128;24.750;2023-02-13T06:40:48;101811.78;;;2.39;60.38
32875;BME280;40468;42.128;24.750;2023-02-13T06:42:21;101820.53;;;2.47;60.23
32875;BME280;40468;42.128;24.750;2023-02-13T06:43:53;101812.03;;;2.51;60.12
32875;BME280;40468;42.128;24.750;2023-02-13T06:45:25;101817.34;;;2.60;59.91
32875;BME280;40468;42.128;24.750;2023-02-13T06:46:57;101819.31;;;2.72;59.86
32875;BME280;40468;42.128;24.750;2023-02-13T06:48:28;101813.50;;;2.82;59.65
32875;BME280;40468;42.128;24.750;2023-02-13T06:50:00;101815.50;;;2.99;59.35
32875;BME280;40468;42.128;24.750;2023-02-13T06:51:32;101813.25;;;3.15;59.28
32875;BME280;40468;42.128;24.750;2023-02-13T06:53:04;101814.41;;;3.31;58.97
32875;BME280;40468;42.128;24.750;2023-02-13T06:54:36;101818.94;;;3.48;58.61
32875;BME280;40468;42.128;24.750;2023-02-13T06:56:08;101805.34;;;3.56;58.45
32875;BME280;40468;42.128;24.750;2023-02-13T06:57:43;101806.59;;;3.83;58.15
32875;BME280;40468;42.128;24.750;2023-02-13T06:59:15;101810.31;;;4.02;57.71
32875;BME280;40468;42.128;24.750;2023-02-13T07:00:46;101805.47;;;4.23;57.32
32875;BME280;40468;42.128;24.750;2023-02-13T07:02:18;101815.09;;;4.40;57.01
32875;BME280;40468;42.128;24.750;2023-02-13T07:03:50;101811.00;;;4.54;56.64
32875;BME280;40468;42.128;24.750;2023-02-13T07:05:22;101812.06;;;4.71;56.32
32875;BME280;40468;42.128;24.750;2023-02-13T07:06:54;101810.53;;;4.89;55.94
32875;BME280;40468;42.128;24.750;2023-02-13T07:08:26;101810.66;;;5.04;55.49
32875;BME280;40468;42.128;24.750;2023-02-13T07:09:59;101803.06;;;5.18;55.15
32875;BME280;40468;42.128;24.750;2023-02-13T07:11:31;101795.44;;;5.33;54.70
32875;BME280;40468;42.128;24.750;2023-02-13T07:13:04;101798.19;;;5.53;54.36
32875;BME280;40468;42.128;24.750;2023-02-13T07:14:36;101805.16;;;5.66;54.49
32875;BME280;40468;42.128;24.750;2023-02-13T07:16:08;101792.34;;;5.83;54.13
32875;BME280;40468;42.128;24.750;2023-02-13T07:17:40;101797.72;;;6.14;53.74
32875;BME280;40468;42.128;24.750;2023-02-13T07:19:11;101797.88;;;6.46;53.23
32875;BME280;40468;42.128;24.750;2023-02-13T07:20:43;101798.88;;;6.83;52.91
32875;BME280;40468;42.128;24.750;2023-02-13T07:22:15;101801.50;;;7.29;52.16
32875;BME280;40468;42.128;24.750;2023-02-13T07:23:47;101800.63;;;7.70;51.39
32875;BME280;40468;42.128;24.750;2023-02-13T07:25:19;101791.88;;;8.13;50.32
32875;BME280;40468;42.128;24.750;2023-02-13T07:26:51;101798.69;;;8.48;49.42
32875;BME280;40468;42.128;24.750;2023-02-13T07:28:24;101796.78;;;8.83;48.25
32875;BME280;40468;42.128;24.750;2023-02-13T07:29:57;101800.84;;;9.20;47.71
32875;BME280;40468;42.128;24.750;2023-02-13T07:31:28;101803.19;;;9.52;47.03
32875;BME280;40468;42.128;24.750;2023-02-13T07:33:01;101799.38;;;9.91;46.53
32875;BME280;40468;42.128;24.750;2023-02-13T07:34:33;101798.94;;;10.31;45.97
32875;BME280;40468;42.128;24.750;2023-02-13T07:36:06;101802.06;;;10.59;45.02
32875;BME280;40468;42.128;24.750;2023-02-13T07:37:38;101802.53;;;10.87;44.01
32875;BME280;40468;42.128;24.750;2023-02-13T07:39:10;101797.78;;;11.15;43.54
32875;BME280;40468;42.128;24.750;2023-02-13T07:40:42;101798.06;;;11.50;43.14
32875;BME280;40468;42.128;24.750;2023-02-13T07:42:14;101802.72;;;11.82;42.14
32875;BME280;40468;42.128;24.750;2023-02-13T07:43:48;101798.03;;;12.02;41.39
32875;BME280;40468;42.128;24.750;2023-02-13T07:45:19;101786.41;;;12.17;40.99
32875;BME280;40468;42.128;24.750;2023-02-13T07:46:51;101792.19;;;12.33;40.31
32875;BME280;40468;42.128;24.750;2023-02-13T07:48:23;101791.69;;;12.56;40.34
32875;BME280;40468;42.128;24.750;2023-02-13T07:49:56;101792.91;;;12.80;39.88
32875;BME280;40468;42.128;24.750;2023-02-13T07:51:28;101789.78;;;13.03;39.54
32875;BME280;40468;42.128;24.750;2023-02-13T07:53:01;101789.31;;;13.23;38.55
32875;BME280;40468;42.128;24.750;2023-02-13T07:54:33;101794.34;;;13.32;37.97
32875;BME280;40468;42.128;24.750;2023-02-13T07:56:05;101802.63;;;13.50;37.72
32875;BME280;40468;42.128;24.750;2023-02-13T07:57:37;101791.00;;;13.60;37.52
32875;BME280;40468;42.128;24.750;2023-02-13T07:59:11;101792.03;;;13.87;37.18
32875;BME280;40468;42.128;24.750;2023-02-13T08:00:42;101795.31;;;13.95;37.01
32875;BME280;40468;42.128;24.750;2023-02-13T08:02:14;101793.03;;;13.83;37.02
32875;BME280;40468;42.128;24.750;2023-02-13T08:03:47;101788.22;;;13.66;37.05
32875;BME280;40468;42.128;24.750;2023-02-13T08:05:19;101790.63;;;13.41;36.98
32875;BME280;40468;42.128;24.750;2023-02-13T08:06:51;101790.53;;;13.08;37.17
32875;BME280;40468;42.128;24.750;2023-02-13T08:08:23;101784.34;;;12.75;37.79
32875;BME280;40468;42.128;24.750;2023-02-13T08:09:54;101784.84;;;12.50;38.25
32875;BME280;40468;42.128;24.750;2023-02-13T08:11:44;101787.84;;;12.32;38.26
32875;BME280;40468;42.128;24.750;2023-02-13T08:13:23;101779.75;;;12.02;38.06
32875;BME280;40468;42.128;24.750;2023-02-13T08:14:56;101794.16;;;11.75;38.19
32875;BME280;40468;42.128;24.750;2023-02-13T08:16:28;101787.09;;;11.29;38.15
32875;BME280;40468;42.128;24.750;2023-02-13T08:18:00;101789.00;;;11.20;38.91
32875;BME280;40468;42.128;24.750;2023-02-13T08:19:31;101781.50;;;11.52;38.69
32875;BME280;40468;42.128;24.750;2023-02-13T08:21:03;101786.97;;;11.88;38.35
32875;BME280;40468;42.128;24.750;2023-02-13T08:22:35;101778.53;;;12.20;37.87